sensor_id;sensor_type;location;lat;lon;timestamp;temperature;humidity
31687;DHT22;18285;51.330;4.946;2023-04-26T00:14:28;22.80;31.70
31687;DHT22;18285;51.330;4.946;2023-04-26T00:38:38;22.80;31.20
31687;DHT22;18285;51.330;4.946;2023-04-26T01:02:50;22.70;32.00
31687;DHT22;18285;51.330;4.946;2023-04-26T01:27:01;22.70;31.50
31687;DHT22;18285;51.330;4.946;2023-04-26T01:51:13;22.80;30.50
31687;DHT22;18285;51.330;4.946;2023-04-26T02:15:24;22.80;30.30
31687;DHT22;18285;51.330;4.946;2023-04-26T02:39:35;22.70;31.50
31687;DHT22;18285;51.330;4.946;2023-04-26T03:03:45;22.70;31.20
31687;DHT22;18285;51.330;4.946;2023-04-26T03:27:56;22.70;30.50
31687;DHT22;18285;51.330;4.946;2023-04-26T03:52:07;22.70;30.10
31687;DHT22;18285;51.330;4.946;2023-04-26T04:16:18;22.70;30.00
31687;DHT22;18285;51.330;4.946;2023-04-26T04:40:28;22.70;29.80
31687;DHT22;18285;51.330;4.946;2023-04-26T05:04:39;22.60;30.00
31687;DHT22;18285;51.330;4.946;2023-04-26T05:28:50;22.50;31.60
31687;DHT22;18285;51.330;4.946;2023-04-26T05:53:01;22.70;31.00
31687;DHT22;18285;51.330;4.946;2023-04-26T06:17:11;22.60;32.70
31687;DHT22;18285;51.330;4.946;2023-04-26T06:41:23;22.80;31.60
31687;DHT22;18285;51.330;4.946;2023-04-26T07:05:34;22.70;33.00
31687;DHT22;18285;51.330;4.946;2023-04-26T07:29:44;22.80;33.10
31687;DHT22;18285;51.330;4.946;2023-04-26T07:53:55;22.80;32.70
31687;DHT22;18285;51.330;4.946;2023-04-26T08:18:06;22.80;34.70
31687;DHT22;18285;51.330;4.946;2023-04-26T08:42:17;22.80;33.70
31687;DHT22;18285;51.330;4.946;2023-04-26T09:06:27;23.00;30.20
31687;DHT22;18285;51.330;4.946;2023-04-26T09:30:39;22.90;30.40
31687;DHT22;18285;51.330;4.946;2023-04-26T09:54:52;22.90;31.30
31687;DHT22;18285;51.330;4.946;2023-04-26T10:19:03;22.90;30.50
31687;DHT22;18285;51.330;4.946;2023-04-26T11:07:36;22.80;31.90
31687;DHT22;18285;51.330;4.946;2023-04-26T11:31:55;22.90;30.60
31687;DHT22;18285;51.330;4.946;2023-04-26T11:56:16;22.90;31.70
31687;DHT22;18285;51.330;4.946;2023-04-26T12:20:32;23.00;32.20
31687;DHT22;18285;51.330;4.946;2023-04-26T12:44:43;23.00;32.20
31687;DHT22;18285;51.330;4.946;2023-04-26T13:08:53;22.90;30.00
31687;DHT22;18285;51.330;4.946;2023-04-26T13:33:04;22.90;30.30
31687;DHT22;18285;51.330;4.946;2023-04-26T13:57:15;23.00;30.70
31687;DHT22;18285;51.330;4.946;2023-04-26T14:21:25;23.00;29.20
31687;DHT22;18285;51.330;4.946;2023-04-26T14:45:36;22.90;29.70
31687;DHT22;18285;51.330;4.946;2023-04-26T15:09:47;22.90;29.90
31687;DHT22;18285;51.330;4.946;2023-04-26T15:33:57;23.00;28.50
31687;DHT22;18285;51.330;4.946;2023-04-26T15:58:08;22.60;26.80
31687;DHT22;18285;51.330;4.946;2023-04-26T16:22:19;21.90;26.00
31687;DHT22;18285;51.330;4.946;2023-04-26T16:46:29;21.60;26.50
31687;DHT22;18285;51.330;4.946;2023-04-26T17:10:40;21.60;28.40
31687;DHT22;18285;51.330;4.946;2023-04-26T17:34:51;22.10;29.40
31687;DHT22;18285;51.330;4.946;2023-04-26T17:59:02;22.30;30.00
31687;DHT22;18285;51.330;4.946;2023-04-26T18:23:13;22.50;29.80
31687;DHT22;18285;51.330;4.946;2023-04-26T18:47:23;22.60;30.00
31687;DHT22;18285;51.330;4.946;2023-04-26T19:11:37;22.60;29.70
31687;DHT22;18285;51.330;4.946;2023-04-26T19:35:48;22.60;30.10
31687;DHT22;18285;51.330;4.946;2023-04-26T19:59:59;22.70;30.20
31687;DHT22;18285;51.330;4.946;2023-04-26T20:24:09;22.60;30.80
31687;DHT22;18285;51.330;4.946;2023-04-26T20:48:20;22.80;31.70
31687;DHT22;18285;51.330;4.946;2023-04-26T21:12:31;22.80;31.80
31687;DHT22;18285;51.330;4.946;2023-04-26T21:36:42;22.80;32.00
31687;DHT22;18285;51.330;4.946;2023-04-26T22:00:52;22.80;32.00
31687;DHT22;18285;51.330;4.946;2023-04-26T22:25:03;22.80;31.90
31687;DHT22;18285;51.330;4.946;2023-04-26T22:49:14;22.80;31.70
31687;DHT22;18285;51.330;4.946;2023-04-26T23:13:25;22.80;31.70
31687;DHT22;18285;51.330;4.946;2023-04-26T23:37:36;22.80;31.70
